Pine View, New Mexico
Current Conditions -  °F | °C
As of 3:15 PM on Thursday 18 Dec 2014 (Local Time) from KSKX Reporting Station
Scattered Clouds Scattered Clouds  
Wind Chill: -1°   Ceiling: Unl
Heat Index:   Visibility: 10mi
Dew Point: -5°   Wind: 7mph
Humidity: 60%   Direction: 340°NNW
Pressure: 30.07"   Gusts: NA
Location:  36.1892°N, 105.688°W
Report Text: KSKX 182215Z AUTO 34006KT 10SM SCT110 02/M05 A3007 RMK AO1
Loading
Personal Weather Stations






























Interactive Weather Map New forecast layout! Learn more

10-Day Weather Forecast

Advertisements
Track Severe Weather on mobile